createdAt,value
2023-05-23T00:01:49.007Z,10.98
2023-05-23T00:04:22.304Z,10.80
2023-05-23T00:06:56.390Z,11.43
2023-05-23T00:09:27.772Z,10.73
2023-05-23T00:11:56.155Z,12.50
2023-05-23T00:14:24.271Z,11.05
2023-05-23T00:16:52.254Z,10.70
2023-05-23T00:19:23.591Z,10.18
2023-05-23T00:22:17.950Z,10.95
2023-05-23T00:24:45.820Z,11.43
2023-05-23T00:27:18.202Z,11.25
2023-05-23T00:29:45.998Z,11.18
2023-05-23T00:32:15.190Z,11.63
2023-05-23T00:34:56.171Z,11.60
2023-05-23T00:37:26.345Z,11.27
2023-05-23T00:39:56.316Z,11.88
2023-05-23T00:42:23.741Z,11.20
2023-05-23T00:44:51.191Z,11.38
2023-05-23T00:47:19.202Z,10.75
2023-05-23T00:49:46.789Z,11.18
2023-05-23T00:52:23.217Z,11.15
2023-05-23T00:54:53.900Z,10.88
2023-05-23T00:57:21.289Z,11.57
2023-05-23T01:03:05.748Z,10.25
2023-05-23T01:05:33.090Z,11.00
2023-05-23T01:08:03.421Z,10.68
2023-05-23T01:10:31.545Z,11.88
2023-05-23T01:12:58.522Z,11.05
2023-05-23T01:15:51.653Z,11.38
2023-05-23T01:18:48.798Z,11.50
2023-05-23T01:21:22.571Z,10.45
2023-05-23T01:24:03.940Z,11.43
2023-05-23T01:26:43.191Z,12.00
2023-05-23T01:29:35.261Z,11.48
2023-05-23T01:32:07.788Z,11.68
2023-05-23T01:34:37.322Z,10.73
2023-05-23T01:37:09.712Z,11.68
2023-05-23T01:39:42.286Z,11.05
2023-05-23T01:42:09.877Z,11.98
2023-05-23T01:44:38.508Z,11.15
2023-05-23T01:47:08.635Z,11.32
2023-05-23T01:49:38.078Z,10.57
2023-05-23T01:52:05.913Z,11.23
2023-05-23T01:54:38.446Z,11.88
2023-05-23T01:57:07.064Z,10.55
2023-05-23T01:59:34.463Z,11.48
2023-05-23T02:02:02.033Z,11.40
2023-05-23T02:04:29.182Z,10.55
2023-05-23T02:06:56.362Z,11.13
2023-05-23T02:09:25.992Z,11.32
2023-05-23T02:11:55.957Z,11.02
2023-05-23T02:14:29.551Z,11.68
2023-05-23T02:19:27.669Z,11.27
2023-05-23T02:21:54.965Z,11.55
2023-05-23T02:24:22.060Z,10.55
2023-05-23T02:26:49.184Z,11.10
2023-05-23T02:29:17.261Z,9.95
2023-05-23T02:31:44.839Z,11.43
2023-05-23T02:34:12.039Z,11.82
2023-05-23T02:36:39.825Z,10.02
2023-05-23T02:39:07.086Z,11.05
2023-05-23T02:41:34.450Z,9.77
2023-05-23T02:44:01.604Z,10.15
2023-05-23T02:46:28.857Z,10.95
2023-05-23T02:48:58.408Z,10.43
2023-05-23T02:51:25.642Z,10.27
2023-05-23T02:53:55.463Z,10.48
2023-05-23T02:56:23.689Z,10.07
2023-05-23T02:58:53.592Z,10.13
2023-05-23T03:01:23.696Z,9.65
2023-05-23T03:03:51.707Z,9.65
2023-05-23T03:06:19.296Z,10.55
2023-05-23T03:08:46.914Z,9.90
2023-05-23T03:11:14.105Z,8.85
2023-05-23T03:13:44.278Z,10.20
2023-05-23T03:16:13.317Z,10.05
2023-05-23T03:18:44.243Z,9.88
2023-05-23T03:21:11.397Z,10.15
2023-05-23T03:23:38.590Z,9.35
2023-05-23T03:26:06.897Z,8.88
2023-05-23T03:28:35.509Z,8.98
2023-05-23T03:31:02.655Z,9.32
2023-05-23T03:33:33.134Z,9.35
2023-05-23T03:36:03.003Z,9.80
2023-05-23T03:38:33.525Z,9.85
2023-05-23T03:41:03.816Z,9.73
2023-05-23T03:43:31.596Z,9.82
2023-05-23T03:46:02.399Z,10.82
2023-05-23T03:48:36.030Z,10.60
2023-05-23T03:51:06.695Z,10.77
2023-05-23T03:53:37.028Z,10.23
2023-05-23T03:56:05.100Z,10.80
2023-05-23T03:58:35.118Z,11.73
2023-05-23T04:01:10.322Z,10.82
2023-05-23T04:03:40.124Z,10.60
2023-05-23T04:06:09.097Z,10.60
2023-05-23T04:08:42.275Z,10.57
2023-05-23T04:11:09.721Z,10.98
2023-05-23T04:13:38.649Z,13.25
2023-05-23T04:16:09.284Z,12.52
2023-05-23T04:18:39.439Z,11.90
2023-05-23T04:21:08.779Z,11.77
2023-05-23T04:23:40.833Z,12.07
2023-05-23T04:26:10.772Z,12.07
2023-05-23T04:28:49.165Z,11.85
2023-05-23T04:31:16.470Z,12.20
2023-05-23T04:33:43.842Z,12.55
2023-05-23T04:36:11.490Z,12.32
2023-05-23T04:38:42.209Z,12.30
2023-05-23T04:41:12.794Z,12.05
2023-05-23T04:43:54.780Z,12.10
2023-05-23T04:46:34.539Z,13.23
2023-05-23T04:49:15.227Z,14.30
2023-05-23T04:51:43.136Z,13.65
2023-05-23T04:54:21.958Z,12.93
2023-05-23T04:56:49.234Z,14.10
2023-05-23T04:59:19.146Z,13.10
2023-05-23T05:01:46.702Z,12.35
2023-05-23T05:04:17.075Z,13.18
2023-05-23T05:06:45.244Z,11.95
2023-05-23T05:09:15.064Z,12.38
2023-05-23T05:11:43.988Z,10.82
2023-05-23T05:14:11.205Z,11.20
2023-05-23T05:16:38.485Z,11.73
2023-05-23T05:19:06.403Z,11.40
2023-05-23T05:21:33.548Z,11.18
2023-05-23T05:24:01.121Z,11.40
2023-05-23T05:26:28.684Z,10.50
2023-05-23T05:28:57.187Z,11.52
2023-05-23T05:31:24.468Z,11.40
2023-05-23T05:33:51.723Z,11.25
2023-05-23T05:36:21.790Z,11.10
2023-05-23T05:38:50.132Z,11.43
2023-05-23T05:41:20.096Z,10.40
2023-05-23T05:43:50.253Z,10.85
2023-05-23T05:46:18.303Z,12.25
2023-05-23T05:48:46.836Z,11.25
2023-05-23T05:51:14.843Z,11.02
2023-05-23T05:53:43.194Z,10.85
2023-05-23T05:56:13.046Z,11.05
2023-05-23T05:58:40.222Z,10.82
2023-05-23T06:01:09.979Z,11.38
2023-05-23T06:03:38.065Z,10.65
2023-05-23T06:06:05.494Z,10.63
2023-05-23T06:08:35.385Z,11.30
2023-05-23T06:11:02.857Z,11.18
2023-05-23T06:13:32.638Z,11.43
2023-05-23T06:15:59.933Z,11.45
2023-05-23T06:18:27.167Z,10.40
2023-05-23T06:20:56.745Z,11.57
2023-05-23T06:23:23.958Z,12.38
2023-05-23T06:25:51.521Z,11.73
2023-05-23T06:28:18.711Z,11.27
2023-05-23T06:30:48.825Z,10.82
2023-05-23T06:33:16.862Z,10.75
2023-05-23T06:35:44.038Z,10.18
2023-05-23T06:38:11.258Z,10.15
2023-05-23T06:40:38.561Z,9.95
2023-05-23T06:43:05.817Z,10.80
2023-05-23T06:45:47.912Z,10.18
2023-05-23T06:48:16.928Z,10.20
2023-05-23T06:50:45.625Z,10.52
2023-05-23T06:53:13.443Z,10.68
2023-05-23T06:55:42.272Z,11.00
2023-05-23T06:58:12.496Z,11.18
2023-05-23T07:00:42.606Z,12.85
2023-05-23T07:03:16.913Z,11.77
2023-05-23T07:05:44.985Z,10.85
2023-05-23T07:08:13.225Z,9.18
2023-05-23T07:10:47.339Z,10.93
2023-05-23T07:13:28.444Z,9.52
2023-05-23T07:15:56.620Z,10.77
2023-05-23T07:18:24.462Z,11.10
2023-05-23T07:20:52.352Z,10.85
2023-05-23T07:23:20.858Z,10.48
2023-05-23T07:26:01.102Z,11.15
2023-05-23T07:28:43.221Z,10.88
2023-05-23T07:31:10.531Z,10.82
2023-05-23T07:33:39.374Z,12.15
2023-05-23T07:36:09.424Z,11.45
2023-05-23T07:38:39.619Z,11.52
2023-05-23T07:41:12.061Z,12.00
2023-05-23T07:43:41.259Z,12.27
2023-05-23T07:46:09.249Z,11.68
2023-05-23T07:48:39.607Z,11.43
2023-05-23T07:51:07.315Z,13.18
2023-05-23T07:53:35.299Z,11.48
2023-05-23T07:56:06.233Z,10.82
2023-05-23T07:58:37.711Z,10.57
2023-05-23T08:01:06.747Z,11.20
2023-05-23T08:03:52.323Z,11.00
2023-05-23T08:06:27.700Z,9.85
2023-05-23T08:08:58.455Z,9.70
2023-05-23T08:11:27.678Z,9.40
2023-05-23T08:13:54.971Z,8.57
2023-05-23T08:16:51.380Z,10.13
2023-05-23T08:19:22.575Z,9.75
2023-05-23T08:21:51.488Z,9.65
2023-05-23T08:24:19.453Z,9.90
2023-05-23T08:26:47.221Z,11.52
2023-05-23T08:31:43.682Z,13.07
2023-05-23T08:34:12.700Z,12.18
2023-05-23T08:36:40.714Z,13.10
2023-05-23T08:39:13.951Z,13.93
2023-05-23T08:42:02.959Z,12.52
2023-05-23T08:44:30.858Z,13.45
2023-05-23T08:47:08.014Z,12.73
2023-05-23T08:49:48.746Z,12.52
2023-05-23T08:52:21.146Z,12.43
2023-05-23T08:54:51.161Z,11.63
2023-05-23T08:57:18.598Z,11.07
2023-05-23T08:59:52.846Z,11.88
2023-05-23T09:02:21.474Z,11.13
2023-05-23T09:04:50.310Z,10.32
2023-05-23T09:07:22.899Z,10.13
2023-05-23T09:09:51.874Z,10.68
2023-05-23T09:12:27.932Z,9.65
2023-05-23T09:14:55.606Z,10.82
2023-05-23T09:17:27.628Z,10.02
2023-05-23T09:19:55.868Z,10.60
2023-05-23T09:22:38.805Z,9.48
2023-05-23T09:25:17.712Z,9.40
2023-05-23T09:27:48.356Z,9.77
2023-05-23T09:30:18.040Z,8.63
2023-05-23T09:33:02.855Z,9.05
2023-05-23T09:35:33.213Z,10.95
2023-05-23T09:38:00.518Z,9.68
2023-05-23T09:40:33.358Z,8.73
2023-05-23T09:43:07.883Z,11.10
2023-05-23T09:45:35.089Z,8.55
2023-05-23T09:48:02.835Z,8.45
2023-05-23T09:50:34.065Z,9.82
2023-05-23T09:53:02.952Z,8.82
2023-05-23T09:55:31.241Z,9.32
2023-05-23T09:58:00.114Z,9.70
2023-05-23T10:00:31.481Z,9.70
2023-05-23T10:03:14.622Z,9.63
2023-05-23T10:05:46.554Z,9.25
2023-05-23T10:08:27.373Z,9.05
2023-05-23T10:10:54.850Z,7.97
2023-05-23T10:13:26.411Z,8.35
2023-05-23T10:16:08.440Z,6.93
2023-05-23T10:18:43.493Z,7.35
2023-05-23T10:21:15.923Z,8.57
2023-05-23T10:23:47.597Z,7.22
2023-05-23T10:26:15.517Z,7.15
2023-05-23T10:28:42.951Z,8.13
2023-05-23T10:31:11.963Z,6.90
2023-05-23T10:33:48.326Z,7.45
2023-05-23T10:36:22.731Z,6.88
2023-05-23T10:39:24.731Z,7.38
2023-05-23T10:41:55.673Z,6.75
2023-05-23T10:44:32.578Z,6.40
2023-05-23T10:47:04.482Z,6.22
2023-05-23T10:49:42.386Z,5.80
2023-05-23T10:52:12.119Z,6.20
2023-05-23T10:54:46.703Z,6.10
2023-05-23T10:57:18.518Z,6.22
2023-05-23T10:59:47.347Z,6.20
2023-05-23T11:02:16.690Z,5.80
2023-05-23T11:04:44.737Z,6.05
2023-05-23T11:07:33.532Z,6.80
2023-05-23T11:10:14.450Z,6.40
2023-05-23T11:12:43.232Z,5.80
2023-05-23T11:15:22.475Z,5.70
2023-05-23T11:17:55.905Z,5.93
2023-05-23T11:20:28.890Z,6.10
2023-05-23T11:23:04.245Z,6.13
2023-05-23T11:25:42.329Z,6.20
2023-05-23T11:28:13.347Z,5.82
2023-05-23T11:30:41.563Z,5.40
2023-05-23T11:33:17.373Z,6.15
2023-05-23T11:35:57.187Z,6.20
2023-05-23T11:38:28.178Z,6.20
2023-05-23T11:40:55.384Z,6.05
2023-05-23T11:43:22.396Z,5.82
2023-05-23T11:45:50.936Z,5.47
2023-05-23T11:48:18.215Z,5.97
2023-05-23T11:50:52.157Z,6.25
2023-05-23T11:53:22.093Z,6.10
2023-05-23T11:55:58.650Z,6.05
2023-05-23T11:58:35.477Z,5.80
2023-05-23T12:01:10.272Z,6.60
2023-05-23T12:04:04.402Z,5.43
2023-05-23T12:06:35.688Z,6.03
2023-05-23T12:09:03.188Z,6.13
2023-05-23T12:11:36.750Z,6.00
2023-05-23T12:14:09.286Z,6.15
2023-05-23T12:16:37.214Z,5.40
2023-05-23T12:19:07.138Z,6.47
2023-05-23T12:21:50.038Z,5.50
2023-05-23T12:24:19.516Z,5.97
2023-05-23T12:27:01.738Z,5.50
2023-05-23T12:29:35.217Z,6.13
2023-05-23T12:32:07.814Z,6.10
2023-05-23T12:34:34.971Z,6.28
2023-05-23T12:39:37.016Z,6.70
2023-05-23T12:42:09.206Z,6.10
2023-05-23T12:44:36.970Z,6.55
2023-05-23T12:47:05.455Z,6.32
2023-05-23T12:49:34.053Z,6.18
2023-05-23T12:52:05.973Z,6.65
2023-05-23T12:54:34.132Z,6.57
2023-05-23T12:57:01.498Z,6.20
2023-05-23T12:59:28.732Z,5.55
2023-05-23T13:01:56.068Z,6.45
2023-05-23T13:04:24.705Z,6.80
2023-05-23T13:06:53.145Z,6.82
2023-05-23T13:09:20.421Z,6.25
2023-05-23T13:11:50.623Z,8.07
2023-05-23T13:14:17.866Z,7.20
2023-05-23T13:16:45.814Z,7.63
2023-05-23T13:19:13.180Z,7.43
2023-05-23T13:21:44.072Z,7.05
2023-05-23T13:24:11.265Z,7.85
2023-05-23T13:26:42.402Z,7.38
2023-05-23T13:29:09.489Z,7.28
2023-05-23T13:31:36.625Z,6.80
2023-05-23T13:34:03.844Z,6.90
2023-05-23T13:36:33.702Z,7.00
2023-05-23T13:39:01.359Z,6.38
2023-05-23T13:41:28.549Z,7.57
2023-05-23T13:43:57.233Z,7.03
2023-05-23T13:46:24.508Z,7.20
2023-05-23T13:48:52.118Z,7.32
2023-05-23T13:51:19.469Z,7.07
2023-05-23T13:53:50.254Z,7.00
2023-05-23T13:56:19.038Z,6.93
2023-05-23T13:58:47.041Z,6.53
2023-05-23T14:01:17.292Z,6.50
2023-05-23T14:03:44.482Z,7.07
2023-05-23T14:06:11.678Z,6.65
2023-05-23T14:08:38.920Z,6.68
2023-05-23T14:11:06.097Z,6.85
2023-05-23T14:13:36.466Z,7.00
2023-05-23T14:16:06.383Z,6.03
2023-05-23T14:18:36.331Z,6.78
2023-05-23T14:21:03.736Z,6.97
2023-05-23T14:23:31.251Z,6.90
2023-05-23T14:26:01.270Z,6.75
2023-05-23T14:28:29.659Z,7.03
2023-05-23T14:30:57.113Z,7.65
2023-05-23T14:33:25.269Z,6.93
2023-05-23T14:35:52.693Z,6.85
2023-05-23T14:38:20.413Z,7.18
2023-05-23T14:40:52.172Z,6.55
2023-05-23T14:43:22.283Z,6.40
2023-05-23T14:45:49.707Z,6.97
2023-05-23T14:48:17.938Z,6.63
2023-05-23T14:50:50.914Z,6.57
2023-05-23T14:53:25.010Z,7.18
2023-05-23T14:55:58.109Z,6.40
2023-05-23T14:58:28.860Z,6.15
2023-05-23T15:00:57.546Z,7.25
2023-05-23T15:03:24.824Z,6.97
2023-05-23T15:05:52.073Z,6.45
2023-05-23T15:08:21.846Z,6.45
2023-05-23T15:10:51.401Z,6.72
2023-05-23T15:13:18.614Z,6.60
2023-05-23T15:15:45.844Z,6.18
2023-05-23T15:18:24.569Z,6.68
2023-05-23T15:20:59.503Z,6.18
2023-05-23T15:23:27.528Z,6.95
2023-05-23T15:25:54.923Z,6.60
2023-05-23T15:28:22.296Z,6.32
2023-05-23T15:30:49.812Z,7.38
2023-05-23T15:33:17.422Z,7.47
2023-05-23T15:35:44.771Z,6.35
2023-05-23T15:38:13.949Z,7.00
2023-05-23T15:40:41.890Z,7.15
2023-05-23T15:43:09.322Z,6.60
2023-05-23T15:45:36.540Z,6.70
2023-05-23T15:48:03.763Z,6.82
2023-05-23T15:50:30.861Z,6.75
2023-05-23T15:52:58.091Z,7.13
2023-05-23T15:55:25.168Z,7.25
2023-05-23T15:57:52.203Z,6.82
2023-05-23T16:00:19.901Z,7.13
2023-05-23T16:02:47.041Z,7.35
2023-05-23T16:05:14.374Z,7.90
2023-05-23T16:07:41.553Z,7.40
2023-05-23T16:10:08.993Z,7.03
2023-05-23T16:12:37.554Z,7.30
2023-05-23T16:15:05.214Z,7.32
2023-05-23T16:17:34.128Z,7.45
2023-05-23T16:20:04.518Z,7.53
2023-05-23T16:22:31.876Z,8.20
2023-05-23T16:24:59.061Z,8.68
2023-05-23T16:27:26.298Z,8.07
2023-05-23T16:29:53.708Z,8.13
2023-05-23T16:32:20.869Z,8.05
2023-05-23T16:34:52.834Z,8.45
2023-05-23T16:37:21.647Z,8.38
2023-05-23T16:39:48.857Z,9.10
2023-05-23T16:42:16.531Z,10.57
2023-05-23T16:44:44.141Z,9.20
2023-05-23T16:47:11.613Z,9.52
2023-05-23T16:49:38.782Z,10.68
2023-05-23T16:52:08.286Z,9.88
2023-05-23T16:54:35.437Z,9.40
2023-05-23T16:57:06.561Z,10.13
2023-05-23T16:59:34.011Z,10.90
2023-05-23T17:02:01.123Z,10.35
2023-05-23T17:04:28.337Z,9.10
2023-05-23T17:06:55.840Z,10.07
2023-05-23T17:09:23.254Z,10.45
2023-05-23T17:11:51.234Z,10.05
2023-05-23T17:14:18.480Z,10.27
2023-05-23T17:16:46.335Z,9.98
2023-05-23T17:19:13.613Z,10.23
2023-05-23T17:21:41.364Z,10.27
2023-05-23T17:24:08.601Z,9.95
2023-05-23T17:26:35.744Z,10.45
2023-05-23T17:29:03.019Z,10.82
2023-05-23T17:31:30.990Z,10.73
2023-05-23T17:34:01.342Z,10.05
2023-05-23T17:36:28.669Z,10.88
2023-05-23T17:38:56.504Z,12.25
2023-05-23T17:41:23.761Z,11.85
2023-05-23T17:43:50.897Z,11.60
2023-05-23T17:46:18.235Z,12.63
2023-05-23T17:48:47.921Z,12.30
2023-05-23T17:51:16.268Z,13.32
2023-05-23T17:53:43.539Z,12.85
2023-05-23T17:56:10.965Z,12.98
2023-05-23T17:58:38.837Z,12.48
2023-05-23T18:01:08.331Z,12.93
2023-05-23T18:03:35.376Z,11.98
2023-05-23T18:06:02.652Z,12.00
2023-05-23T18:08:29.997Z,12.40
2023-05-23T18:10:59.785Z,12.43
2023-05-23T18:13:26.945Z,11.65
2023-05-23T18:15:54.060Z,11.30
2023-05-23T18:18:21.294Z,11.23
2023-05-23T18:20:48.455Z,12.10
2023-05-23T18:23:15.944Z,12.90
2023-05-23T18:25:43.314Z,12.90
2023-05-23T18:28:10.690Z,13.77
2023-05-23T18:30:37.835Z,12.48
2023-05-23T18:33:05.165Z,13.65
2023-05-23T18:35:34.530Z,14.10
2023-05-23T18:38:03.969Z,11.75
2023-05-23T18:40:32.348Z,12.35
2023-05-23T18:42:59.505Z,11.85
2023-05-23T18:45:29.121Z,13.18
2023-05-23T18:47:56.538Z,13.38
2023-05-23T18:50:23.889Z,12.57
2023-05-23T18:52:51.109Z,12.80
2023-05-23T18:55:20.079Z,13.15
2023-05-23T18:57:47.211Z,12.85
2023-05-23T19:00:14.850Z,13.48
2023-05-23T19:02:44.603Z,13.68
2023-05-23T19:05:12.846Z,13.63
2023-05-23T19:07:40.859Z,13.98
2023-05-23T19:10:09.426Z,13.23
2023-05-23T19:12:38.955Z,14.15
2023-05-23T19:15:11.006Z,14.38
2023-05-23T19:17:41.824Z,13.38
2023-05-23T19:20:09.778Z,12.80
2023-05-23T19:22:50.350Z,12.80
2023-05-23T19:25:19.127Z,13.57
2023-05-23T19:27:46.428Z,12.98
2023-05-23T19:30:13.798Z,13.65
2023-05-23T19:32:40.977Z,14.23
2023-05-23T19:35:12.000Z,14.32
2023-05-23T19:37:44.508Z,14.15
2023-05-23T19:40:12.343Z,13.75
2023-05-23T19:42:40.176Z,13.98
2023-05-23T19:45:08.983Z,12.32
2023-05-23T19:47:36.372Z,13.25
2023-05-23T19:50:05.107Z,12.65
2023-05-23T19:52:32.609Z,12.80
2023-05-23T19:55:01.255Z,12.40
2023-05-23T19:57:30.472Z,12.82
2023-05-23T19:59:57.724Z,12.68
2023-05-23T20:02:26.531Z,13.27
2023-05-23T20:04:53.996Z,13.43
2023-05-23T20:07:21.438Z,13.52
2023-05-23T20:09:48.970Z,13.85
2023-05-23T20:12:16.192Z,13.07
2023-05-23T20:14:43.287Z,14.10
2023-05-23T20:17:16.073Z,14.52
2023-05-23T20:19:43.244Z,15.13
2023-05-23T20:22:10.554Z,14.25
2023-05-23T20:24:40.881Z,15.77
2023-05-23T20:27:08.461Z,14.48
2023-05-23T20:29:35.654Z,14.43
2023-05-23T20:32:17.654Z,14.93
2023-05-23T20:34:54.016Z,13.27
2023-05-23T20:40:00.747Z,15.13
2023-05-23T20:42:39.631Z,14.95
2023-05-23T20:45:15.001Z,14.65
2023-05-23T20:47:45.974Z,16.38
2023-05-23T20:50:22.170Z,14.88
2023-05-23T20:52:52.225Z,15.48
2023-05-23T20:55:24.358Z,16.48
2023-05-23T20:57:55.037Z,15.40
2023-05-23T21:00:35.154Z,15.57
2023-05-23T21:03:05.981Z,16.00
2023-05-23T21:05:34.179Z,16.38
2023-05-23T21:08:01.782Z,15.95
2023-05-23T21:10:39.927Z,16.10
2023-05-23T21:13:07.271Z,17.10
2023-05-23T21:15:37.371Z,15.27
2023-05-23T21:18:12.282Z,15.25
2023-05-23T21:20:50.815Z,17.45
2023-05-23T21:23:23.330Z,17.92
2023-05-23T21:25:55.981Z,17.35
2023-05-23T21:28:32.910Z,16.77
2023-05-23T21:31:04.175Z,16.55
2023-05-23T21:33:38.824Z,16.08
2023-05-23T21:36:06.409Z,16.60
2023-05-23T21:38:37.580Z,16.13
2023-05-23T21:41:10.826Z,15.82
2023-05-23T21:43:43.438Z,17.80
2023-05-23T21:46:21.638Z,16.85
2023-05-23T21:48:54.635Z,17.92
2023-05-23T21:51:21.866Z,16.60
2023-05-23T21:53:49.150Z,18.13
2023-05-23T21:56:16.456Z,16.63
2023-05-23T21:58:43.721Z,19.60
2023-05-23T22:01:10.864Z,16.92
2023-05-23T22:03:42.240Z,19.17
2023-05-23T22:06:15.539Z,16.10
2023-05-23T22:08:46.397Z,17.88
2023-05-23T22:11:14.121Z,18.40
2023-05-23T22:13:41.244Z,17.08
2023-05-23T22:16:08.687Z,17.35
2023-05-23T22:18:51.097Z,19.05
2023-05-23T22:21:21.717Z,18.35
2023-05-23T22:23:49.030Z,17.27
2023-05-23T22:26:16.076Z,19.70
2023-05-23T22:28:45.703Z,17.30
2023-05-23T22:31:16.073Z,17.77
2023-05-23T22:33:43.817Z,19.35
2023-05-23T22:36:11.459Z,18.48
2023-05-23T22:38:38.878Z,18.45
2023-05-23T22:41:08.473Z,18.58
2023-05-23T22:43:35.701Z,19.00
2023-05-23T22:46:02.888Z,18.48
2023-05-23T22:48:34.153Z,18.10
2023-05-23T22:51:02.662Z,19.60
2023-05-23T22:53:30.409Z,18.60
2023-05-23T22:56:00.310Z,18.83
2023-05-23T22:58:27.768Z,20.10
2023-05-23T23:00:55.124Z,19.77
2023-05-23T23:03:22.591Z,18.98
2023-05-23T23:05:49.882Z,19.15
2023-05-23T23:08:19.612Z,18.90
2023-05-23T23:10:47.048Z,19.77
2023-05-23T23:13:14.280Z,19.27
2023-05-23T23:15:45.206Z,19.92
2023-05-23T23:18:15.301Z,18.45
2023-05-23T23:20:44.619Z,18.33
2023-05-23T23:23:12.077Z,17.73
2023-05-23T23:25:40.500Z,17.45
2023-05-23T23:28:08.633Z,17.27
2023-05-23T23:30:35.893Z,16.30
2023-05-23T23:33:03.027Z,17.48
2023-05-23T23:35:30.272Z,16.73
2023-05-23T23:37:57.311Z,16.85
2023-05-23T23:40:24.475Z,17.73
2023-05-23T23:42:57.588Z,17.92
2023-05-23T23:45:24.742Z,16.73
2023-05-23T23:47:51.850Z,18.15
2023-05-23T23:50:24.542Z,17.33
2023-05-23T23:52:51.690Z,17.40
2023-05-23T23:55:19.228Z,17.85
2023-05-23T23:57:46.671Z,17.92
